Harnell Park, Minnesota
Current Conditions -  °F | °C
As of 10:55 PM on Friday 31 Oct 2014 (Local Time) from KDLH Reporting Station
Clear Clear  
Wind Chill: -4°   Ceiling: Unl
Heat Index: -4°   Visibility: 10mi
Dew Point: -9°   Wind: 3mph
Humidity: 66%   Direction: 170°S
Pressure: 30.44"   Gusts: NA
Location:  46.8859°N, 92.4258°W
Report Text: KDLH 010355Z 17003KT 10SM CLR M04/M09 A3044 RMK AO2 SLP332 T10391094 $
Loading
Personal Weather Stations






























Interactive Weather Map
Tropical Storm Tracking
New forecast layout! Learn more

10-Day Weather Forecast

Advertisements
Track Severe Weather on mobile